sensor_id;sensor_type;location;lat;lon;timestamp;P1;durP1;ratioP1;P2;durP2;ratioP2
68484;SDS011;55472;50.060;21.960;2024-01-30T00:02:14;12.18;;;2.83;;
68484;SDS011;55472;50.060;21.960;2024-01-30T00:04:40;7.75;;;3.00;;
68484;SDS011;55472;50.060;21.960;2024-01-30T00:07:06;9.47;;;2.97;;
68484;SDS011;55472;50.060;21.960;2024-01-30T00:09:33;10.13;;;3.17;;
68484;SDS011;55472;50.060;21.960;2024-01-30T00:11:59;9.57;;;3.05;;
68484;SDS011;55472;50.060;21.960;2024-01-30T00:14:25;10.18;;;2.65;;
68484;SDS011;55472;50.060;21.960;2024-01-30T00:16:51;10.10;;;2.80;;
68484;SDS011;55472;50.060;21.960;2024-01-30T00:19:18;8.93;;;2.50;;
68484;SDS011;55472;50.060;21.960;2024-01-30T00:21:44;8.57;;;2.67;;
68484;SDS011;55472;50.060;21.960;2024-01-30T00:24:10;10.48;;;2.75;;
68484;SDS011;55472;50.060;21.960;2024-01-30T00:26:36;9.17;;;2.40;;
68484;SDS011;55472;50.060;21.960;2024-01-30T00:29:02;9.60;;;3.30;;
68484;SDS011;55472;50.060;21.960;2024-01-30T00:31:28;8.13;;;2.75;;
68484;SDS011;55472;50.060;21.960;2024-01-30T00:33:55;13.20;;;2.90;;
68484;SDS011;55472;50.060;21.960;2024-01-30T00:36:21;7.35;;;2.45;;
68484;SDS011;55472;50.060;21.960;2024-01-30T00:38:47;7.75;;;1.95;;
68484;SDS011;55472;50.060;21.960;2024-01-30T00:41:13;8.73;;;2.50;;
68484;SDS011;55472;50.060;21.960;2024-01-30T00:43:40;9.57;;;2.58;;
68484;SDS011;55472;50.060;21.960;2024-01-30T00:46:06;7.72;;;2.40;;
68484;SDS011;55472;50.060;21.960;2024-01-30T00:48:32;10.07;;;2.70;;
68484;SDS011;55472;50.060;21.960;2024-01-30T00:50:58;5.97;;;2.20;;
68484;SDS011;55472;50.060;21.960;2024-01-30T00:53:24;7.43;;;2.33;;
68484;SDS011;55472;50.060;21.960;2024-01-30T00:55:51;8.65;;;2.20;;
68484;SDS011;55472;50.060;21.960;2024-01-30T00:58:17;5.57;;;1.35;;
68484;SDS011;55472;50.060;21.960;2024-01-30T01:00:44;7.80;;;2.13;;
68484;SDS011;55472;50.060;21.960;2024-01-30T01:03:11;8.93;;;2.17;;
68484;SDS011;55472;50.060;21.960;2024-01-30T01:05:36;8.63;;;2.10;;
68484;SDS011;55472;50.060;21.960;2024-01-30T01:08:03;7.25;;;1.98;;
68484;SDS011;55472;50.060;21.960;2024-01-30T01:10:29;7.47;;;2.30;;
68484;SDS011;55472;50.060;21.960;2024-01-30T01:12:55;5.50;;;1.88;;
68484;SDS011;55472;50.060;21.960;2024-01-30T01:15:21;8.13;;;2.20;;
68484;SDS011;55472;50.060;21.960;2024-01-30T01:17:48;6.43;;;1.65;;
68484;SDS011;55472;50.060;21.960;2024-01-30T01:20:14;8.68;;;2.28;;
68484;SDS011;55472;50.060;21.960;2024-01-30T01:22:40;5.97;;;2.20;;
68484;SDS011;55472;50.060;21.960;2024-01-30T01:25:06;6.35;;;1.92;;
68484;SDS011;55472;50.060;21.960;2024-01-30T01:27:36;7.90;;;2.80;;
68484;SDS011;55472;50.060;21.960;2024-01-30T01:30:07;11.05;;;3.13;;
68484;SDS011;55472;50.060;21.960;2024-01-30T01:32:35;9.80;;;2.53;;
68484;SDS011;55472;50.060;21.960;2024-01-30T01:35:02;7.60;;;1.98;;
68484;SDS011;55472;50.060;21.960;2024-01-30T01:37:31;5.57;;;2.00;;
68484;SDS011;55472;50.060;21.960;2024-01-30T01:39:57;5.97;;;2.03;;
68484;SDS011;55472;50.060;21.960;2024-01-30T01:42:23;6.90;;;1.98;;
68484;SDS011;55472;50.060;21.960;2024-01-30T01:44:49;8.95;;;2.00;;
68484;SDS011;55472;50.060;21.960;2024-01-30T01:47:16;7.43;;;1.80;;
68484;SDS011;55472;50.060;21.960;2024-01-30T01:49:42;7.90;;;2.53;;
68484;SDS011;55472;50.060;21.960;2024-01-30T01:52:08;6.57;;;2.00;;
68484;SDS011;55472;50.060;21.960;2024-01-30T01:54:35;5.18;;;1.65;;
68484;SDS011;55472;50.060;21.960;2024-01-30T01:57:02;6.53;;;2.00;;
68484;SDS011;55472;50.060;21.960;2024-01-30T01:59:29;6.57;;;1.90;;
68484;SDS011;55472;50.060;21.960;2024-01-30T02:01:55;6.03;;;2.10;;
68484;SDS011;55472;50.060;21.960;2024-01-30T02:04:22;5.40;;;1.80;;
68484;SDS011;55472;50.060;21.960;2024-01-30T02:06:48;8.48;;;2.17;;
68484;SDS011;55472;50.060;21.960;2024-01-30T02:09:14;6.68;;;2.08;;
68484;SDS011;55472;50.060;21.960;2024-01-30T02:11:41;5.95;;;2.00;;
68484;SDS011;55472;50.060;21.960;2024-01-30T02:14:07;8.00;;;2.50;;
68484;SDS011;55472;50.060;21.960;2024-01-30T02:16:33;5.27;;;1.77;;
68484;SDS011;55472;50.060;21.960;2024-01-30T02:18:59;8.30;;;2.05;;
68484;SDS011;55472;50.060;21.960;2024-01-30T02:21:26;5.82;;;1.92;;
68484;SDS011;55472;50.060;21.960;2024-01-30T02:23:52;5.82;;;1.75;;
68484;SDS011;55472;50.060;21.960;2024-01-30T02:26:20;5.80;;;2.22;;
68484;SDS011;55472;50.060;21.960;2024-01-30T02:28:46;5.13;;;2.03;;
68484;SDS011;55472;50.060;21.960;2024-01-30T02:31:12;4.70;;;1.60;;
68484;SDS011;55472;50.060;21.960;2024-01-30T02:33:38;7.18;;;1.90;;
68484;SDS011;55472;50.060;21.960;2024-01-30T02:36:05;5.20;;;2.03;;
68484;SDS011;55472;50.060;21.960;2024-01-30T02:38:31;6.53;;;1.90;;
68484;SDS011;55472;50.060;21.960;2024-01-30T02:40:57;5.75;;;1.70;;
68484;SDS011;55472;50.060;21.960;2024-01-30T02:43:23;5.43;;;2.00;;
68484;SDS011;55472;50.060;21.960;2024-01-30T02:45:49;6.28;;;1.92;;
68484;SDS011;55472;50.060;21.960;2024-01-30T02:48:15;5.07;;;1.83;;
68484;SDS011;55472;50.060;21.960;2024-01-30T02:50:42;7.17;;;2.27;;
68484;SDS011;55472;50.060;21.960;2024-01-30T02:53:08;7.55;;;2.00;;
68484;SDS011;55472;50.060;21.960;2024-01-30T02:55:35;7.22;;;2.13;;
68484;SDS011;55472;50.060;21.960;2024-01-30T02:58:01;7.95;;;2.28;;
68484;SDS011;55472;50.060;21.960;2024-01-30T03:00:27;6.75;;;2.13;;
68484;SDS011;55472;50.060;21.960;2024-01-30T03:02:53;8.50;;;2.17;;
68484;SDS011;55472;50.060;21.960;2024-01-30T03:05:19;6.38;;;2.38;;
68484;SDS011;55472;50.060;21.960;2024-01-30T03:07:45;6.82;;;1.92;;
68484;SDS011;55472;50.060;21.960;2024-01-30T03:10:12;8.25;;;2.22;;
68484;SDS011;55472;50.060;21.960;2024-01-30T03:12:38;7.53;;;2.37;;
68484;SDS011;55472;50.060;21.960;2024-01-30T03:15:04;8.07;;;2.30;;
68484;SDS011;55472;50.060;21.960;2024-01-30T03:17:30;7.63;;;2.17;;
68484;SDS011;55472;50.060;21.960;2024-01-30T03:19:57;5.07;;;1.88;;
68484;SDS011;55472;50.060;21.960;2024-01-30T03:22:23;6.75;;;2.08;;
68484;SDS011;55472;50.060;21.960;2024-01-30T03:24:50;6.90;;;2.17;;
68484;SDS011;55472;50.060;21.960;2024-01-30T03:27:16;8.25;;;2.25;;
68484;SDS011;55472;50.060;21.960;2024-01-30T03:29:42;8.25;;;2.58;;
68484;SDS011;55472;50.060;21.960;2024-01-30T03:32:08;7.72;;;2.08;;
68484;SDS011;55472;50.060;21.960;2024-01-30T03:34:34;7.30;;;2.10;;
68484;SDS011;55472;50.060;21.960;2024-01-30T03:37:00;6.50;;;2.33;;
68484;SDS011;55472;50.060;21.960;2024-01-30T03:39:26;6.15;;;2.15;;
68484;SDS011;55472;50.060;21.960;2024-01-30T03:41:52;7.60;;;2.10;;
68484;SDS011;55472;50.060;21.960;2024-01-30T03:44:18;7.20;;;2.10;;
68484;SDS011;55472;50.060;21.960;2024-01-30T03:46:45;9.77;;;2.10;;
68484;SDS011;55472;50.060;21.960;2024-01-30T03:49:11;6.03;;;2.03;;
68484;SDS011;55472;50.060;21.960;2024-01-30T03:51:37;9.25;;;2.13;;
68484;SDS011;55472;50.060;21.960;2024-01-30T03:54:04;6.82;;;1.92;;
68484;SDS011;55472;50.060;21.960;2024-01-30T03:56:30;6.73;;;2.20;;
68484;SDS011;55472;50.060;21.960;2024-01-30T03:58:56;7.00;;;2.22;;
68484;SDS011;55472;50.060;21.960;2024-01-30T04:01:23;8.00;;;2.42;;
68484;SDS011;55472;50.060;21.960;2024-01-30T04:03:50;8.57;;;2.50;;
68484;SDS011;55472;50.060;21.960;2024-01-30T04:06:17;7.63;;;2.23;;
68484;SDS011;55472;50.060;21.960;2024-01-30T04:08:43;7.05;;;2.40;;
68484;SDS011;55472;50.060;21.960;2024-01-30T04:11:09;4.88;;;1.73;;
68484;SDS011;55472;50.060;21.960;2024-01-30T04:13:35;8.40;;;2.38;;
68484;SDS011;55472;50.060;21.960;2024-01-30T04:16:01;10.00;;;2.70;;
68484;SDS011;55472;50.060;21.960;2024-01-30T04:18:29;6.93;;;2.60;;
68484;SDS011;55472;50.060;21.960;2024-01-30T04:20:55;7.50;;;2.50;;
68484;SDS011;55472;50.060;21.960;2024-01-30T04:23:21;5.90;;;2.05;;
68484;SDS011;55472;50.060;21.960;2024-01-30T04:25:47;6.82;;;2.38;;
68484;SDS011;55472;50.060;21.960;2024-01-30T04:28:14;6.10;;;2.50;;
68484;SDS011;55472;50.060;21.960;2024-01-30T04:30:40;6.50;;;2.80;;
68484;SDS011;55472;50.060;21.960;2024-01-30T04:33:06;6.90;;;2.45;;
68484;SDS011;55472;50.060;21.960;2024-01-30T04:35:32;6.85;;;2.42;;
68484;SDS011;55472;50.060;21.960;2024-01-30T04:37:58;9.82;;;2.95;;
68484;SDS011;55472;50.060;21.960;2024-01-30T04:40:24;7.53;;;2.17;;
68484;SDS011;55472;50.060;21.960;2024-01-30T04:42:51;10.50;;;2.63;;
68484;SDS011;55472;50.060;21.960;2024-01-30T04:45:17;9.50;;;2.90;;
68484;SDS011;55472;50.060;21.960;2024-01-30T04:47:43;8.25;;;2.60;;
68484;SDS011;55472;50.060;21.960;2024-01-30T04:50:09;7.90;;;2.87;;
68484;SDS011;55472;50.060;21.960;2024-01-30T04:52:35;9.10;;;2.77;;
68484;SDS011;55472;50.060;21.960;2024-01-30T04:55:01;7.90;;;2.70;;
68484;SDS011;55472;50.060;21.960;2024-01-30T04:57:27;9.60;;;3.03;;
68484;SDS011;55472;50.060;21.960;2024-01-30T04:59:54;9.88;;;3.45;;
68484;SDS011;55472;50.060;21.960;2024-01-30T05:02:20;7.60;;;3.13;;
68484;SDS011;55472;50.060;21.960;2024-01-30T05:04:46;9.70;;;3.30;;
68484;SDS011;55472;50.060;21.960;2024-01-30T05:07:12;9.45;;;3.20;;
68484;SDS011;55472;50.060;21.960;2024-01-30T05:09:38;11.43;;;3.17;;
68484;SDS011;55472;50.060;21.960;2024-01-30T05:12:04;6.95;;;2.85;;
68484;SDS011;55472;50.060;21.960;2024-01-30T05:14:31;8.10;;;3.07;;
68484;SDS011;55472;50.060;21.960;2024-01-30T05:16:57;8.63;;;3.38;;
68484;SDS011;55472;50.060;21.960;2024-01-30T05:19:23;9.13;;;3.28;;
68484;SDS011;55472;50.060;21.960;2024-01-30T05:21:49;8.25;;;2.90;;
68484;SDS011;55472;50.060;21.960;2024-01-30T05:24:15;9.52;;;3.20;;
68484;SDS011;55472;50.060;21.960;2024-01-30T05:26:41;9.13;;;3.03;;
68484;SDS011;55472;50.060;21.960;2024-01-30T05:29:08;8.10;;;2.45;;
68484;SDS011;55472;50.060;21.960;2024-01-30T05:31:34;10.70;;;3.15;;
68484;SDS011;55472;50.060;21.960;2024-01-30T05:34:00;9.95;;;2.92;;
68484;SDS011;55472;50.060;21.960;2024-01-30T05:36:27;8.52;;;2.67;;
68484;SDS011;55472;50.060;21.960;2024-01-30T05:38:53;7.60;;;2.83;;
68484;SDS011;55472;50.060;21.960;2024-01-30T05:41:19;11.13;;;3.13;;
68484;SDS011;55472;50.060;21.960;2024-01-30T05:43:46;10.52;;;3.78;;
68484;SDS011;55472;50.060;21.960;2024-01-30T05:46:12;9.63;;;2.90;;
68484;SDS011;55472;50.060;21.960;2024-01-30T05:48:38;11.43;;;3.87;;
68484;SDS011;55472;50.060;21.960;2024-01-30T05:51:05;10.03;;;3.00;;
68484;SDS011;55472;50.060;21.960;2024-01-30T05:53:33;6.80;;;2.72;;
68484;SDS011;55472;50.060;21.960;2024-01-30T05:56:03;9.90;;;3.15;;
68484;SDS011;55472;50.060;21.960;2024-01-30T05:58:30;8.93;;;2.72;;
68484;SDS011;55472;50.060;21.960;2024-01-30T06:00:56;9.48;;;3.00;;
68484;SDS011;55472;50.060;21.960;2024-01-30T06:03:23;6.77;;;2.37;;
68484;SDS011;55472;50.060;21.960;2024-01-30T06:05:50;8.75;;;2.97;;
68484;SDS011;55472;50.060;21.960;2024-01-30T06:08:16;9.65;;;3.13;;
68484;SDS011;55472;50.060;21.960;2024-01-30T06:10:43;9.38;;;3.38;;
68484;SDS011;55472;50.060;21.960;2024-01-30T06:13:09;7.40;;;3.07;;
68484;SDS011;55472;50.060;21.960;2024-01-30T06:15:35;7.20;;;2.30;;
68484;SDS011;55472;50.060;21.960;2024-01-30T06:18:01;11.88;;;2.75;;
68484;SDS011;55472;50.060;21.960;2024-01-30T06:20:29;7.22;;;3.00;;
68484;SDS011;55472;50.060;21.960;2024-01-30T06:22:55;6.63;;;2.08;;
68484;SDS011;55472;50.060;21.960;2024-01-30T06:25:21;7.40;;;2.77;;
68484;SDS011;55472;50.060;21.960;2024-01-30T06:27:49;8.35;;;2.88;;
68484;SDS011;55472;50.060;21.960;2024-01-30T06:30:16;6.45;;;1.95;;
68484;SDS011;55472;50.060;21.960;2024-01-30T06:32:42;10.55;;;2.97;;
68484;SDS011;55472;50.060;21.960;2024-01-30T06:35:08;7.78;;;2.38;;
68484;SDS011;55472;50.060;21.960;2024-01-30T06:37:35;9.90;;;2.93;;
68484;SDS011;55472;50.060;21.960;2024-01-30T06:40:02;8.68;;;2.78;;
68484;SDS011;55472;50.060;21.960;2024-01-30T06:42:30;9.93;;;3.38;;
68484;SDS011;55472;50.060;21.960;2024-01-30T06:44:57;9.40;;;3.28;;
68484;SDS011;55472;50.060;21.960;2024-01-30T06:47:22;11.80;;;3.20;;
68484;SDS011;55472;50.060;21.960;2024-01-30T06:49:49;6.88;;;2.70;;
68484;SDS011;55472;50.060;21.960;2024-01-30T06:52:15;9.95;;;2.92;;
68484;SDS011;55472;50.060;21.960;2024-01-30T06:54:41;5.85;;;1.92;;
68484;SDS011;55472;50.060;21.960;2024-01-30T06:57:07;8.37;;;2.67;;
68484;SDS011;55472;50.060;21.960;2024-01-30T06:59:37;6.68;;;2.17;;
68484;SDS011;55472;50.060;21.960;2024-01-30T07:02:08;8.60;;;2.90;;
68484;SDS011;55472;50.060;21.960;2024-01-30T07:04:36;5.55;;;2.45;;
68484;SDS011;55472;50.060;21.960;2024-01-30T07:07:03;7.95;;;2.53;;
68484;SDS011;55472;50.060;21.960;2024-01-30T07:09:31;7.77;;;2.60;;
68484;SDS011;55472;50.060;21.960;2024-01-30T07:11:57;8.75;;;2.50;;
68484;SDS011;55472;50.060;21.960;2024-01-30T07:14:25;8.18;;;2.17;;
68484;SDS011;55472;50.060;21.960;2024-01-30T07:16:51;7.93;;;2.95;;
68484;SDS011;55472;50.060;21.960;2024-01-30T07:19:18;7.53;;;3.08;;
68484;SDS011;55472;50.060;21.960;2024-01-30T07:21:44;8.97;;;2.80;;
68484;SDS011;55472;50.060;21.960;2024-01-30T07:24:10;7.10;;;2.28;;
68484;SDS011;55472;50.060;21.960;2024-01-30T07:26:36;6.20;;;2.25;;
68484;SDS011;55472;50.060;21.960;2024-01-30T07:29:02;9.15;;;2.50;;
68484;SDS011;55472;50.060;21.960;2024-01-30T07:31:29;9.50;;;2.53;;
68484;SDS011;55472;50.060;21.960;2024-01-30T07:33:55;8.43;;;2.20;;
68484;SDS011;55472;50.060;21.960;2024-01-30T07:36:21;5.80;;;1.85;;
68484;SDS011;55472;50.060;21.960;2024-01-30T07:38:47;5.90;;;2.13;;
68484;SDS011;55472;50.060;21.960;2024-01-30T07:41:13;5.53;;;2.07;;
68484;SDS011;55472;50.060;21.960;2024-01-30T07:43:39;5.53;;;1.90;;
68484;SDS011;55472;50.060;21.960;2024-01-30T07:46:05;12.40;;;2.60;;
68484;SDS011;55472;50.060;21.960;2024-01-30T07:48:32;8.45;;;2.60;;
68484;SDS011;55472;50.060;21.960;2024-01-30T07:50:59;6.77;;;2.30;;
68484;SDS011;55472;50.060;21.960;2024-01-30T07:53:25;6.05;;;2.20;;
68484;SDS011;55472;50.060;21.960;2024-01-30T07:55:52;6.90;;;2.40;;
68484;SDS011;55472;50.060;21.960;2024-01-30T07:58:18;11.45;;;3.53;;
68484;SDS011;55472;50.060;21.960;2024-01-30T08:00:44;5.87;;;2.10;;
68484;SDS011;55472;50.060;21.960;2024-01-30T08:03:11;6.10;;;2.15;;
68484;SDS011;55472;50.060;21.960;2024-01-30T08:05:37;7.85;;;2.70;;
68484;SDS011;55472;50.060;21.960;2024-01-30T08:08:04;6.53;;;2.50;;
68484;SDS011;55472;50.060;21.960;2024-01-30T08:10:31;8.13;;;2.60;;
68484;SDS011;55472;50.060;21.960;2024-01-30T08:12:57;7.70;;;2.67;;
68484;SDS011;55472;50.060;21.960;2024-01-30T08:15:23;5.68;;;1.88;;
68484;SDS011;55472;50.060;21.960;2024-01-30T08:17:49;6.90;;;2.17;;
68484;SDS011;55472;50.060;21.960;2024-01-30T08:20:20;7.15;;;2.53;;
68484;SDS011;55472;50.060;21.960;2024-01-30T08:22:47;7.07;;;2.28;;
68484;SDS011;55472;50.060;21.960;2024-01-30T08:25:13;7.33;;;2.33;;
68484;SDS011;55472;50.060;21.960;2024-01-30T08:27:39;8.30;;;2.30;;
68484;SDS011;55472;50.060;21.960;2024-01-30T08:30:06;8.20;;;2.83;;
68484;SDS011;55472;50.060;21.960;2024-01-30T08:32:33;7.07;;;2.30;;
68484;SDS011;55472;50.060;21.960;2024-01-30T08:34:59;6.00;;;2.47;;
68484;SDS011;55472;50.060;21.960;2024-01-30T08:37:29;8.50;;;2.47;;
68484;SDS011;55472;50.060;21.960;2024-01-30T08:39:55;7.50;;;2.55;;
68484;SDS011;55472;50.060;21.960;2024-01-30T08:42:22;7.53;;;2.33;;
68484;SDS011;55472;50.060;21.960;2024-01-30T08:44:51;8.75;;;2.42;;
68484;SDS011;55472;50.060;21.960;2024-01-30T08:47:18;7.97;;;3.00;;
68484;SDS011;55472;50.060;21.960;2024-01-30T08:49:44;6.22;;;2.10;;
68484;SDS011;55472;50.060;21.960;2024-01-30T08:52:11;8.35;;;2.50;;
68484;SDS011;55472;50.060;21.960;2024-01-30T08:54:37;7.93;;;2.40;;
68484;SDS011;55472;50.060;21.960;2024-01-30T08:57:03;7.72;;;2.65;;
68484;SDS011;55472;50.060;21.960;2024-01-30T08:59:29;6.17;;;2.47;;
68484;SDS011;55472;50.060;21.960;2024-01-30T09:01:56;7.57;;;2.78;;
68484;SDS011;55472;50.060;21.960;2024-01-30T09:04:23;5.13;;;1.92;;
68484;SDS011;55472;50.060;21.960;2024-01-30T09:06:55;7.35;;;2.35;;
68484;SDS011;55472;50.060;21.960;2024-01-30T09:09:21;7.07;;;2.38;;
68484;SDS011;55472;50.060;21.960;2024-01-30T09:11:47;6.00;;;2.40;;
68484;SDS011;55472;50.060;21.960;2024-01-30T09:14:13;7.43;;;2.40;;
68484;SDS011;55472;50.060;21.960;2024-01-30T09:16:40;7.43;;;2.63;;
68484;SDS011;55472;50.060;21.960;2024-01-30T09:19:06;8.38;;;2.72;;
68484;SDS011;55472;50.060;21.960;2024-01-30T09:21:32;7.13;;;2.50;;
68484;SDS011;55472;50.060;21.960;2024-01-30T09:24:02;6.17;;;2.40;;
68484;SDS011;55472;50.060;21.960;2024-01-30T09:26:31;5.75;;;2.33;;
68484;SDS011;55472;50.060;21.960;2024-01-30T09:28:57;6.70;;;2.50;;
68484;SDS011;55472;50.060;21.960;2024-01-30T09:31:23;6.38;;;2.25;;
68484;SDS011;55472;50.060;21.960;2024-01-30T09:33:49;7.97;;;2.80;;
68484;SDS011;55472;50.060;21.960;2024-01-30T09:36:16;7.65;;;2.47;;
68484;SDS011;55472;50.060;21.960;2024-01-30T09:38:45;8.30;;;2.50;;
68484;SDS011;55472;50.060;21.960;2024-01-30T09:41:11;6.75;;;2.60;;
68484;SDS011;55472;50.060;21.960;2024-01-30T09:43:38;6.32;;;2.47;;
68484;SDS011;55472;50.060;21.960;2024-01-30T09:46:08;6.63;;;2.88;;
68484;SDS011;55472;50.060;21.960;2024-01-30T09:48:41;5.20;;;2.07;;
68484;SDS011;55472;50.060;21.960;2024-01-30T09:51:09;7.90;;;2.70;;
68484;SDS011;55472;50.060;21.960;2024-01-30T09:53:36;8.20;;;2.90;;
68484;SDS011;55472;50.060;21.960;2024-01-30T09:56:03;7.00;;;2.47;;
68484;SDS011;55472;50.060;21.960;2024-01-30T09:58:30;6.30;;;2.42;;
68484;SDS011;55472;50.060;21.960;2024-01-30T10:00:57;5.85;;;2.65;;
68484;SDS011;55472;50.060;21.960;2024-01-30T10:03:23;8.00;;;2.95;;
68484;SDS011;55472;50.060;21.960;2024-01-30T10:05:52;6.97;;;2.70;;
68484;SDS011;55472;50.060;21.960;2024-01-30T10:08:20;7.20;;;2.60;;
68484;SDS011;55472;50.060;21.960;2024-01-30T10:10:47;7.63;;;2.83;;
68484;SDS011;55472;50.060;21.960;2024-01-30T10:13:15;7.97;;;2.70;;
68484;SDS011;55472;50.060;21.960;2024-01-30T10:15:42;6.38;;;2.55;;
68484;SDS011;55472;50.060;21.960;2024-01-30T10:18:08;6.77;;;2.53;;
68484;SDS011;55472;50.060;21.960;2024-01-30T10:20:36;6.45;;;2.30;;
68484;SDS011;55472;50.060;21.960;2024-01-30T10:23:02;6.43;;;2.50;;
68484;SDS011;55472;50.060;21.960;2024-01-30T10:25:30;7.88;;;2.90;;
68484;SDS011;55472;50.060;21.960;2024-01-30T10:27:59;8.25;;;2.67;;
68484;SDS011;55472;50.060;21.960;2024-01-30T10:30:25;6.87;;;2.40;;
68484;SDS011;55472;50.060;21.960;2024-01-30T10:32:53;6.40;;;2.42;;
68484;SDS011;55472;50.060;21.960;2024-01-30T10:35:19;8.98;;;3.28;;
68484;SDS011;55472;50.060;21.960;2024-01-30T10:37:48;8.35;;;2.58;;
68484;SDS011;55472;50.060;21.960;2024-01-30T10:40:15;9.75;;;2.75;;
68484;SDS011;55472;50.060;21.960;2024-01-30T10:42:45;6.32;;;2.25;;
68484;SDS011;55472;50.060;21.960;2024-01-30T10:45:12;6.68;;;2.40;;
68484;SDS011;55472;50.060;21.960;2024-01-30T10:47:43;6.72;;;2.83;;
68484;SDS011;55472;50.060;21.960;2024-01-30T10:50:15;6.50;;;2.63;;
68484;SDS011;55472;50.060;21.960;2024-01-30T10:52:42;6.37;;;2.50;;
68484;SDS011;55472;50.060;21.960;2024-01-30T10:55:09;7.93;;;2.25;;
68484;SDS011;55472;50.060;21.960;2024-01-30T10:57:36;7.32;;;2.53;;
68484;SDS011;55472;50.060;21.960;2024-01-30T11:00:07;5.90;;;2.22;;
68484;SDS011;55472;50.060;21.960;2024-01-30T11:02:40;5.97;;;1.92;;
68484;SDS011;55472;50.060;21.960;2024-01-30T11:05:11;5.47;;;2.00;;
68484;SDS011;55472;50.060;21.960;2024-01-30T11:07:39;6.90;;;2.33;;
68484;SDS011;55472;50.060;21.960;2024-01-30T11:10:07;7.57;;;2.80;;
68484;SDS011;55472;50.060;21.960;2024-01-30T11:12:38;6.65;;;2.45;;
68484;SDS011;55472;50.060;21.960;2024-01-30T11:15:13;6.63;;;2.70;;
68484;SDS011;55472;50.060;21.960;2024-01-30T11:17:53;6.87;;;2.50;;
68484;SDS011;55472;50.060;21.960;2024-01-30T11:20:25;5.95;;;2.30;;
68484;SDS011;55472;50.060;21.960;2024-01-30T11:22:54;9.57;;;4.07;;
68484;SDS011;55472;50.060;21.960;2024-01-30T11:25:22;11.15;;;3.70;;
68484;SDS011;55472;50.060;21.960;2024-01-30T11:27:50;6.78;;;2.58;;
68484;SDS011;55472;50.060;21.960;2024-01-30T11:33:02;8.30;;;3.40;;
68484;SDS011;55472;50.060;21.960;2024-01-30T11:35:37;8.20;;;3.10;;
68484;SDS011;55472;50.060;21.960;2024-01-30T11:38:08;7.22;;;2.85;;
68484;SDS011;55472;50.060;21.960;2024-01-30T11:40:37;8.70;;;3.38;;
68484;SDS011;55472;50.060;21.960;2024-01-30T11:43:05;8.00;;;2.38;;
68484;SDS011;55472;50.060;21.960;2024-01-30T11:45:33;8.70;;;2.77;;
68484;SDS011;55472;50.060;21.960;2024-01-30T11:48:00;9.68;;;3.83;;
68484;SDS011;55472;50.060;21.960;2024-01-30T11:50:35;9.32;;;3.45;;
68484;SDS011;55472;50.060;21.960;2024-01-30T11:53:03;8.52;;;3.28;;
68484;SDS011;55472;50.060;21.960;2024-01-30T11:55:30;8.25;;;3.22;;
68484;SDS011;55472;50.060;21.960;2024-01-30T11:57:57;7.60;;;2.50;;
68484;SDS011;55472;50.060;21.960;2024-01-30T12:00:24;7.25;;;2.47;;
68484;SDS011;55472;50.060;21.960;2024-01-30T12:02:51;5.95;;;2.15;;
68484;SDS011;55472;50.060;21.960;2024-01-30T12:05:21;15.27;;;4.57;;
68484;SDS011;55472;50.060;21.960;2024-01-30T12:07:48;7.90;;;2.97;;
68484;SDS011;55472;50.060;21.960;2024-01-30T12:10:16;6.27;;;2.30;;
68484;SDS011;55472;50.060;21.960;2024-01-30T12:12:46;9.30;;;3.72;;
68484;SDS011;55472;50.060;21.960;2024-01-30T12:15:15;9.63;;;3.17;;
68484;SDS011;55472;50.060;21.960;2024-01-30T12:17:43;8.57;;;3.45;;
68484;SDS011;55472;50.060;21.960;2024-01-30T12:20:10;14.38;;;5.95;;
68484;SDS011;55472;50.060;21.960;2024-01-30T12:22:39;8.10;;;3.10;;
68484;SDS011;55472;50.060;21.960;2024-01-30T12:25:13;8.25;;;2.90;;
68484;SDS011;55472;50.060;21.960;2024-01-30T12:27:42;13.70;;;4.75;;
68484;SDS011;55472;50.060;21.960;2024-01-30T12:30:12;9.43;;;2.88;;
68484;SDS011;55472;50.060;21.960;2024-01-30T12:32:43;12.68;;;3.78;;
68484;SDS011;55472;50.060;21.960;2024-01-30T12:35:12;9.43;;;3.40;;
68484;SDS011;55472;50.060;21.960;2024-01-30T12:37:41;8.07;;;2.50;;
68484;SDS011;55472;50.060;21.960;2024-01-30T12:40:10;6.35;;;2.40;;
68484;SDS011;55472;50.060;21.960;2024-01-30T12:42:38;7.85;;;2.83;;
68484;SDS011;55472;50.060;21.960;2024-01-30T12:45:05;8.68;;;3.65;;
68484;SDS011;55472;50.060;21.960;2024-01-30T12:47:31;12.03;;;4.27;;
68484;SDS011;55472;50.060;21.960;2024-01-30T12:49:58;9.20;;;3.80;;
68484;SDS011;55472;50.060;21.960;2024-01-30T12:52:24;8.23;;;3.50;;
68484;SDS011;55472;50.060;21.960;2024-01-30T12:54:51;9.00;;;3.80;;
68484;SDS011;55472;50.060;21.960;2024-01-30T12:57:18;9.45;;;3.45;;
68484;SDS011;55472;50.060;21.960;2024-01-30T12:59:44;11.37;;;3.60;;
68484;SDS011;55472;50.060;21.960;2024-01-30T13:02:15;14.40;;;4.43;;
68484;SDS011;55472;50.060;21.960;2024-01-30T13:04:41;12.73;;;4.10;;
68484;SDS011;55472;50.060;21.960;2024-01-30T13:07:08;7.22;;;3.25;;
68484;SDS011;55472;50.060;21.960;2024-01-30T13:09:34;9.18;;;3.42;;
68484;SDS011;55472;50.060;21.960;2024-01-30T13:12:01;8.37;;;3.20;;
68484;SDS011;55472;50.060;21.960;2024-01-30T13:14:28;11.18;;;4.22;;
68484;SDS011;55472;50.060;21.960;2024-01-30T13:16:54;8.77;;;3.60;;
68484;SDS011;55472;50.060;21.960;2024-01-30T13:19:20;16.60;;;7.75;;
68484;SDS011;55472;50.060;21.960;2024-01-30T13:21:46;13.32;;;5.18;;
68484;SDS011;55472;50.060;21.960;2024-01-30T13:24:13;9.60;;;3.43;;
68484;SDS011;55472;50.060;21.960;2024-01-30T13:26:39;7.75;;;3.08;;
68484;SDS011;55472;50.060;21.960;2024-01-30T13:29:08;7.63;;;3.10;;
68484;SDS011;55472;50.060;21.960;2024-01-30T13:31:34;8.10;;;3.30;;
68484;SDS011;55472;50.060;21.960;2024-01-30T13:34:00;8.70;;;3.40;;
68484;SDS011;55472;50.060;21.960;2024-01-30T13:36:26;7.10;;;3.00;;
68484;SDS011;55472;50.060;21.960;2024-01-30T13:38:53;8.60;;;3.50;;
68484;SDS011;55472;50.060;21.960;2024-01-30T13:41:19;9.20;;;3.72;;
68484;SDS011;55472;50.060;21.960;2024-01-30T13:43:46;8.07;;;3.53;;
68484;SDS011;55472;50.060;21.960;2024-01-30T13:46:12;8.98;;;3.70;;
68484;SDS011;55472;50.060;21.960;2024-01-30T13:48:39;7.97;;;3.17;;
68484;SDS011;55472;50.060;21.960;2024-01-30T13:51:05;8.48;;;3.08;;
68484;SDS011;55472;50.060;21.960;2024-01-30T13:53:31;9.90;;;3.80;;
68484;SDS011;55472;50.060;21.960;2024-01-30T13:55:57;11.88;;;4.78;;
68484;SDS011;55472;50.060;21.960;2024-01-30T13:58:23;10.65;;;4.32;;
68484;SDS011;55472;50.060;21.960;2024-01-30T14:00:50;14.33;;;5.57;;
68484;SDS011;55472;50.060;21.960;2024-01-30T14:03:16;7.57;;;3.10;;
68484;SDS011;55472;50.060;21.960;2024-01-30T14:05:42;12.88;;;5.70;;
68484;SDS011;55472;50.060;21.960;2024-01-30T14:08:09;11.35;;;5.38;;
68484;SDS011;55472;50.060;21.960;2024-01-30T14:10:35;8.40;;;3.53;;
68484;SDS011;55472;50.060;21.960;2024-01-30T14:13:02;11.02;;;3.97;;
68484;SDS011;55472;50.060;21.960;2024-01-30T14:15:28;10.43;;;4.00;;
68484;SDS011;55472;50.060;21.960;2024-01-30T14:17:54;9.80;;;4.13;;
68484;SDS011;55472;50.060;21.960;2024-01-30T14:20:20;8.63;;;3.28;;
68484;SDS011;55472;50.060;21.960;2024-01-30T14:22:47;8.85;;;3.72;;
68484;SDS011;55472;50.060;21.960;2024-01-30T14:25:13;12.00;;;3.47;;
68484;SDS011;55472;50.060;21.960;2024-01-30T14:27:39;11.57;;;3.90;;
68484;SDS011;55472;50.060;21.960;2024-01-30T14:30:05;7.20;;;2.95;;
68484;SDS011;55472;50.060;21.960;2024-01-30T14:32:33;8.98;;;3.50;;
68484;SDS011;55472;50.060;21.960;2024-01-30T14:35:00;12.30;;;4.57;;